sensor_id;sensor_type;location;lat;lon;timestamp;P1;durP1;ratioP1;P2;durP2;ratioP2
60344;SDS011;46188;52.324;8.032;2023-07-09T00:01:42;6.90;;;3.97;;
60344;SDS011;46188;52.324;8.032;2023-07-09T00:04:10;5.13;;;4.03;;
60344;SDS011;46188;52.324;8.032;2023-07-09T00:06:36;5.10;;;3.88;;
60344;SDS011;46188;52.324;8.032;2023-07-09T00:09:02;7.65;;;4.38;;
60344;SDS011;46188;52.324;8.032;2023-07-09T00:11:27;5.10;;;3.80;;
60344;SDS011;46188;52.324;8.032;2023-07-09T00:13:52;7.00;;;3.90;;
60344;SDS011;46188;52.324;8.032;2023-07-09T00:16:23;5.50;;;4.17;;
60344;SDS011;46188;52.324;8.032;2023-07-09T00:18:49;6.05;;;3.90;;
60344;SDS011;46188;52.324;8.032;2023-07-09T00:21:19;11.38;;;4.07;;
60344;SDS011;46188;52.324;8.032;2023-07-09T00:23:46;8.77;;;4.30;;
60344;SDS011;46188;52.324;8.032;2023-07-09T00:26:13;8.68;;;4.35;;
60344;SDS011;46188;52.324;8.032;2023-07-09T00:28:40;8.68;;;4.60;;
60344;SDS011;46188;52.324;8.032;2023-07-09T00:31:08;5.88;;;4.35;;
60344;SDS011;46188;52.324;8.032;2023-07-09T00:33:36;8.55;;;4.03;;
60344;SDS011;46188;52.324;8.032;2023-07-09T00:36:04;6.15;;;4.05;;
60344;SDS011;46188;52.324;8.032;2023-07-09T00:38:39;7.20;;;4.13;;
60344;SDS011;46188;52.324;8.032;2023-07-09T00:41:08;6.32;;;4.10;;
60344;SDS011;46188;52.324;8.032;2023-07-09T00:43:48;5.65;;;3.88;;
60344;SDS011;46188;52.324;8.032;2023-07-09T00:48:52;7.95;;;4.30;;
60344;SDS011;46188;52.324;8.032;2023-07-09T00:51:22;5.13;;;3.97;;
60344;SDS011;46188;52.324;8.032;2023-07-09T00:53:50;5.35;;;4.03;;
60344;SDS011;46188;52.324;8.032;2023-07-09T00:56:24;6.05;;;4.40;;
60344;SDS011;46188;52.324;8.032;2023-07-09T00:58:54;6.00;;;4.32;;
60344;SDS011;46188;52.324;8.032;2023-07-09T01:01:20;10.95;;;4.82;;
60344;SDS011;46188;52.324;8.032;2023-07-09T01:03:47;5.82;;;4.38;;
60344;SDS011;46188;52.324;8.032;2023-07-09T01:06:17;6.20;;;4.50;;
60344;SDS011;46188;52.324;8.032;2023-07-09T01:08:48;6.07;;;4.63;;
60344;SDS011;46188;52.324;8.032;2023-07-09T01:11:18;6.53;;;4.40;;
60344;SDS011;46188;52.324;8.032;2023-07-09T01:13:49;6.40;;;4.82;;
60344;SDS011;46188;52.324;8.032;2023-07-09T01:16:18;9.15;;;4.65;;
60344;SDS011;46188;52.324;8.032;2023-07-09T01:18:45;9.48;;;4.63;;
60344;SDS011;46188;52.324;8.032;2023-07-09T01:21:11;5.82;;;4.22;;
60344;SDS011;46188;52.324;8.032;2023-07-09T01:23:40;9.80;;;5.15;;
60344;SDS011;46188;52.324;8.032;2023-07-09T01:26:08;4.95;;;4.40;;
60344;SDS011;46188;52.324;8.032;2023-07-09T01:28:36;7.70;;;4.78;;
60344;SDS011;46188;52.324;8.032;2023-07-09T01:31:01;5.70;;;4.90;;
60344;SDS011;46188;52.324;8.032;2023-07-09T01:33:29;6.15;;;4.68;;
60344;SDS011;46188;52.324;8.032;2023-07-09T01:35:54;5.90;;;4.85;;
60344;SDS011;46188;52.324;8.032;2023-07-09T01:38:25;6.35;;;5.20;;
60344;SDS011;46188;52.324;8.032;2023-07-09T01:40:50;9.23;;;4.90;;
60344;SDS011;46188;52.324;8.032;2023-07-09T01:43:15;7.10;;;4.70;;
60344;SDS011;46188;52.324;8.032;2023-07-09T01:45:40;6.00;;;4.90;;
60344;SDS011;46188;52.324;8.032;2023-07-09T01:48:06;8.38;;;4.60;;
60344;SDS011;46188;52.324;8.032;2023-07-09T01:50:39;7.27;;;4.87;;
60344;SDS011;46188;52.324;8.032;2023-07-09T01:53:06;6.68;;;4.10;;
60344;SDS011;46188;52.324;8.032;2023-07-09T01:55:33;5.13;;;4.60;;
60344;SDS011;46188;52.324;8.032;2023-07-09T01:57:58;8.15;;;4.22;;
60344;SDS011;46188;52.324;8.032;2023-07-09T02:00:24;7.17;;;4.17;;
60344;SDS011;46188;52.324;8.032;2023-07-09T02:02:49;6.53;;;4.50;;
60344;SDS011;46188;52.324;8.032;2023-07-09T02:05:16;5.40;;;3.95;;
60344;SDS011;46188;52.324;8.032;2023-07-09T02:07:43;6.15;;;4.28;;
60344;SDS011;46188;52.324;8.032;2023-07-09T02:10:08;6.97;;;4.55;;
60344;SDS011;46188;52.324;8.032;2023-07-09T02:12:35;6.35;;;4.15;;
60344;SDS011;46188;52.324;8.032;2023-07-09T02:15:00;7.40;;;4.72;;
60344;SDS011;46188;52.324;8.032;2023-07-09T02:17:25;5.68;;;4.50;;
60344;SDS011;46188;52.324;8.032;2023-07-09T02:19:51;6.17;;;4.67;;
60344;SDS011;46188;52.324;8.032;2023-07-09T02:22:16;6.32;;;3.95;;
60344;SDS011;46188;52.324;8.032;2023-07-09T02:24:41;7.07;;;4.80;;
60344;SDS011;46188;52.324;8.032;2023-07-09T02:27:07;6.43;;;4.88;;
60344;SDS011;46188;52.324;8.032;2023-07-09T02:29:35;6.82;;;4.72;;
60344;SDS011;46188;52.324;8.032;2023-07-09T02:32:01;5.28;;;4.70;;
60344;SDS011;46188;52.324;8.032;2023-07-09T02:34:27;7.55;;;5.20;;
60344;SDS011;46188;52.324;8.032;2023-07-09T02:36:53;5.72;;;4.50;;
60344;SDS011;46188;52.324;8.032;2023-07-09T02:39:19;7.38;;;4.63;;
60344;SDS011;46188;52.324;8.032;2023-07-09T02:41:45;5.82;;;4.60;;
60344;SDS011;46188;52.324;8.032;2023-07-09T02:44:11;7.50;;;4.70;;
60344;SDS011;46188;52.324;8.032;2023-07-09T02:46:36;6.43;;;4.65;;
60344;SDS011;46188;52.324;8.032;2023-07-09T02:49:05;4.90;;;4.40;;
60344;SDS011;46188;52.324;8.032;2023-07-09T02:51:31;5.20;;;3.95;;
60344;SDS011;46188;52.324;8.032;2023-07-09T02:54:00;6.53;;;4.82;;
60344;SDS011;46188;52.324;8.032;2023-07-09T02:56:27;5.07;;;4.30;;
60344;SDS011;46188;52.324;8.032;2023-07-09T02:58:53;8.95;;;4.80;;
60344;SDS011;46188;52.324;8.032;2023-07-09T03:01:18;6.32;;;4.55;;
60344;SDS011;46188;52.324;8.032;2023-07-09T03:03:49;6.32;;;4.30;;
60344;SDS011;46188;52.324;8.032;2023-07-09T03:06:15;7.60;;;4.60;;
60344;SDS011;46188;52.324;8.032;2023-07-09T03:08:41;8.50;;;4.90;;
60344;SDS011;46188;52.324;8.032;2023-07-09T03:11:13;6.03;;;4.75;;
60344;SDS011;46188;52.324;8.032;2023-07-09T03:13:40;7.10;;;4.93;;
60344;SDS011;46188;52.324;8.032;2023-07-09T03:16:05;5.50;;;4.50;;
60344;SDS011;46188;52.324;8.032;2023-07-09T03:18:30;5.63;;;4.15;;
60344;SDS011;46188;52.324;8.032;2023-07-09T03:20:56;6.57;;;4.57;;
60344;SDS011;46188;52.324;8.032;2023-07-09T03:23:22;5.93;;;4.78;;
60344;SDS011;46188;52.324;8.032;2023-07-09T03:25:47;5.28;;;4.55;;
60344;SDS011;46188;52.324;8.032;2023-07-09T03:28:12;6.88;;;4.50;;
60344;SDS011;46188;52.324;8.032;2023-07-09T03:30:41;7.60;;;4.90;;
60344;SDS011;46188;52.324;8.032;2023-07-09T03:33:07;9.93;;;4.82;;
60344;SDS011;46188;52.324;8.032;2023-07-09T03:35:33;6.35;;;4.80;;
60344;SDS011;46188;52.324;8.032;2023-07-09T03:37:59;8.30;;;4.85;;
60344;SDS011;46188;52.324;8.032;2023-07-09T03:40:25;16.05;;;4.78;;
60344;SDS011;46188;52.324;8.032;2023-07-09T03:42:50;5.13;;;4.40;;
60344;SDS011;46188;52.324;8.032;2023-07-09T03:45:15;6.73;;;4.60;;
60344;SDS011;46188;52.324;8.032;2023-07-09T03:47:41;5.93;;;4.47;;
60344;SDS011;46188;52.324;8.032;2023-07-09T03:50:09;6.78;;;4.93;;
60344;SDS011;46188;52.324;8.032;2023-07-09T03:52:38;7.72;;;4.70;;
60344;SDS011;46188;52.324;8.032;2023-07-09T03:55:03;7.13;;;5.22;;
60344;SDS011;46188;52.324;8.032;2023-07-09T03:57:32;5.88;;;4.65;;
60344;SDS011;46188;52.324;8.032;2023-07-09T03:59:58;7.32;;;4.90;;
60344;SDS011;46188;52.324;8.032;2023-07-09T04:02:23;6.80;;;4.50;;
60344;SDS011;46188;52.324;8.032;2023-07-09T04:04:49;6.95;;;5.00;;
60344;SDS011;46188;52.324;8.032;2023-07-09T04:07:14;5.73;;;4.43;;
60344;SDS011;46188;52.324;8.032;2023-07-09T04:09:40;7.00;;;5.38;;
60344;SDS011;46188;52.324;8.032;2023-07-09T04:12:06;5.65;;;4.90;;
60344;SDS011;46188;52.324;8.032;2023-07-09T04:14:31;7.28;;;5.00;;
60344;SDS011;46188;52.324;8.032;2023-07-09T04:16:56;8.27;;;4.55;;
60344;SDS011;46188;52.324;8.032;2023-07-09T04:19:22;7.10;;;4.80;;
60344;SDS011;46188;52.324;8.032;2023-07-09T04:21:48;6.55;;;4.63;;
60344;SDS011;46188;52.324;8.032;2023-07-09T04:24:14;7.18;;;4.57;;
60344;SDS011;46188;52.324;8.032;2023-07-09T04:26:41;5.30;;;4.47;;
60344;SDS011;46188;52.324;8.032;2023-07-09T04:29:06;6.97;;;4.67;;
60344;SDS011;46188;52.324;8.032;2023-07-09T04:31:32;5.70;;;4.73;;
60344;SDS011;46188;52.324;8.032;2023-07-09T04:33:57;7.80;;;4.97;;
60344;SDS011;46188;52.324;8.032;2023-07-09T04:36:22;7.40;;;4.63;;
60344;SDS011;46188;52.324;8.032;2023-07-09T04:38:47;7.97;;;4.65;;
60344;SDS011;46188;52.324;8.032;2023-07-09T04:41:13;5.93;;;4.47;;
60344;SDS011;46188;52.324;8.032;2023-07-09T04:43:38;5.50;;;4.40;;
60344;SDS011;46188;52.324;8.032;2023-07-09T04:46:03;7.33;;;4.60;;
60344;SDS011;46188;52.324;8.032;2023-07-09T04:48:28;5.40;;;4.23;;
60344;SDS011;46188;52.324;8.032;2023-07-09T04:50:54;6.37;;;4.37;;
60344;SDS011;46188;52.324;8.032;2023-07-09T04:53:19;8.40;;;4.50;;
60344;SDS011;46188;52.324;8.032;2023-07-09T04:55:45;5.18;;;4.50;;
60344;SDS011;46188;52.324;8.032;2023-07-09T04:58:10;6.35;;;4.10;;
60344;SDS011;46188;52.324;8.032;2023-07-09T05:00:35;7.87;;;4.63;;
60344;SDS011;46188;52.324;8.032;2023-07-09T05:03:00;7.20;;;5.27;;
60344;SDS011;46188;52.324;8.032;2023-07-09T05:05:26;6.97;;;4.90;;
60344;SDS011;46188;52.324;8.032;2023-07-09T05:07:51;6.30;;;4.70;;
60344;SDS011;46188;52.324;8.032;2023-07-09T05:10:16;6.17;;;4.43;;
60344;SDS011;46188;52.324;8.032;2023-07-09T05:12:48;5.60;;;4.45;;
60344;SDS011;46188;52.324;8.032;2023-07-09T05:15:22;5.75;;;4.68;;
60344;SDS011;46188;52.324;8.032;2023-07-09T05:17:48;5.68;;;4.35;;
60344;SDS011;46188;52.324;8.032;2023-07-09T05:20:14;7.35;;;4.40;;
60344;SDS011;46188;52.324;8.032;2023-07-09T05:22:40;8.35;;;4.63;;
60344;SDS011;46188;52.324;8.032;2023-07-09T05:25:05;5.90;;;4.85;;
60344;SDS011;46188;52.324;8.032;2023-07-09T05:27:30;6.10;;;4.80;;
60344;SDS011;46188;52.324;8.032;2023-07-09T05:29:56;5.53;;;4.33;;
60344;SDS011;46188;52.324;8.032;2023-07-09T05:32:21;7.18;;;4.70;;
60344;SDS011;46188;52.324;8.032;2023-07-09T05:34:46;8.05;;;4.53;;
60344;SDS011;46188;52.324;8.032;2023-07-09T05:37:11;8.97;;;4.33;;
60344;SDS011;46188;52.324;8.032;2023-07-09T05:39:37;7.87;;;4.83;;
60344;SDS011;46188;52.324;8.032;2023-07-09T05:42:02;4.72;;;4.22;;
60344;SDS011;46188;52.324;8.032;2023-07-09T05:44:28;5.97;;;4.32;;
60344;SDS011;46188;52.324;8.032;2023-07-09T05:46:53;6.07;;;4.60;;
60344;SDS011;46188;52.324;8.032;2023-07-09T05:49:18;5.35;;;4.75;;
60344;SDS011;46188;52.324;8.032;2023-07-09T05:51:43;7.17;;;4.33;;
60344;SDS011;46188;52.324;8.032;2023-07-09T05:54:09;6.87;;;5.03;;
60344;SDS011;46188;52.324;8.032;2023-07-09T05:56:34;7.00;;;4.57;;
60344;SDS011;46188;52.324;8.032;2023-07-09T05:58:59;5.95;;;4.43;;
60344;SDS011;46188;52.324;8.032;2023-07-09T06:01:25;7.78;;;4.43;;
60344;SDS011;46188;52.324;8.032;2023-07-09T06:03:51;8.60;;;4.40;;
60344;SDS011;46188;52.324;8.032;2023-07-09T06:06:17;5.82;;;4.82;;
60344;SDS011;46188;52.324;8.032;2023-07-09T06:08:42;6.03;;;4.45;;
60344;SDS011;46188;52.324;8.032;2023-07-09T06:11:07;5.30;;;4.35;;
60344;SDS011;46188;52.324;8.032;2023-07-09T06:13:33;5.93;;;4.80;;
60344;SDS011;46188;52.324;8.032;2023-07-09T06:15:59;5.55;;;4.63;;
60344;SDS011;46188;52.324;8.032;2023-07-09T06:18:25;7.68;;;5.25;;
60344;SDS011;46188;52.324;8.032;2023-07-09T06:20:54;7.20;;;4.55;;
60344;SDS011;46188;52.324;8.032;2023-07-09T06:23:21;6.60;;;4.50;;
60344;SDS011;46188;52.324;8.032;2023-07-09T06:25:46;11.98;;;4.88;;
60344;SDS011;46188;52.324;8.032;2023-07-09T06:28:16;5.68;;;4.47;;
60344;SDS011;46188;52.324;8.032;2023-07-09T06:30:43;5.20;;;4.28;;
60344;SDS011;46188;52.324;8.032;2023-07-09T06:33:09;6.03;;;4.70;;
60344;SDS011;46188;52.324;8.032;2023-07-09T06:35:35;5.47;;;4.53;;
60344;SDS011;46188;52.324;8.032;2023-07-09T06:38:01;5.73;;;4.43;;
60344;SDS011;46188;52.324;8.032;2023-07-09T06:40:26;8.43;;;4.70;;
60344;SDS011;46188;52.324;8.032;2023-07-09T06:42:51;9.20;;;5.10;;
60344;SDS011;46188;52.324;8.032;2023-07-09T06:45:16;7.45;;;4.85;;
60344;SDS011;46188;52.324;8.032;2023-07-09T06:47:42;5.78;;;4.78;;
60344;SDS011;46188;52.324;8.032;2023-07-09T06:50:07;5.23;;;4.73;;
60344;SDS011;46188;52.324;8.032;2023-07-09T06:52:33;6.93;;;4.80;;
60344;SDS011;46188;52.324;8.032;2023-07-09T06:54:58;6.00;;;4.80;;
60344;SDS011;46188;52.324;8.032;2023-07-09T06:57:23;5.70;;;4.90;;
60344;SDS011;46188;52.324;8.032;2023-07-09T06:59:48;5.57;;;4.80;;
60344;SDS011;46188;52.324;8.032;2023-07-09T07:02:13;7.53;;;5.23;;
60344;SDS011;46188;52.324;8.032;2023-07-09T07:04:39;7.60;;;4.90;;
60344;SDS011;46188;52.324;8.032;2023-07-09T07:07:04;5.60;;;4.50;;
60344;SDS011;46188;52.324;8.032;2023-07-09T07:09:29;5.87;;;4.77;;
60344;SDS011;46188;52.324;8.032;2023-07-09T07:11:55;6.10;;;4.23;;
60344;SDS011;46188;52.324;8.032;2023-07-09T07:14:20;5.93;;;4.78;;
60344;SDS011;46188;52.324;8.032;2023-07-09T07:16:46;7.00;;;5.00;;
60344;SDS011;46188;52.324;8.032;2023-07-09T07:19:11;6.43;;;5.10;;
60344;SDS011;46188;52.324;8.032;2023-07-09T07:21:36;5.23;;;4.47;;
60344;SDS011;46188;52.324;8.032;2023-07-09T07:24:01;7.13;;;5.27;;
60344;SDS011;46188;52.324;8.032;2023-07-09T07:26:28;5.25;;;4.45;;
60344;SDS011;46188;52.324;8.032;2023-07-09T07:28:53;8.88;;;4.50;;
60344;SDS011;46188;52.324;8.032;2023-07-09T07:31:19;5.82;;;4.68;;
60344;SDS011;46188;52.324;8.032;2023-07-09T07:33:44;8.07;;;4.32;;
60344;SDS011;46188;52.324;8.032;2023-07-09T07:36:09;7.70;;;4.90;;
60344;SDS011;46188;52.324;8.032;2023-07-09T07:38:35;7.20;;;4.53;;
60344;SDS011;46188;52.324;8.032;2023-07-09T07:41:01;5.37;;;4.30;;
60344;SDS011;46188;52.324;8.032;2023-07-09T07:43:26;6.88;;;4.53;;
60344;SDS011;46188;52.324;8.032;2023-07-09T07:45:52;7.50;;;4.97;;
60344;SDS011;46188;52.324;8.032;2023-07-09T07:48:17;6.43;;;4.73;;
60344;SDS011;46188;52.324;8.032;2023-07-09T07:50:42;6.03;;;4.73;;
60344;SDS011;46188;52.324;8.032;2023-07-09T07:53:08;6.30;;;4.40;;
60344;SDS011;46188;52.324;8.032;2023-07-09T07:55:34;6.78;;;4.63;;
60344;SDS011;46188;52.324;8.032;2023-07-09T07:58:01;8.88;;;4.72;;
60344;SDS011;46188;52.324;8.032;2023-07-09T08:00:28;6.90;;;4.22;;
60344;SDS011;46188;52.324;8.032;2023-07-09T08:02:54;6.20;;;4.63;;
60344;SDS011;46188;52.324;8.032;2023-07-09T08:05:19;7.47;;;4.70;;
60344;SDS011;46188;52.324;8.032;2023-07-09T08:07:45;7.33;;;4.43;;
60344;SDS011;46188;52.324;8.032;2023-07-09T08:10:10;6.18;;;3.88;;
60344;SDS011;46188;52.324;8.032;2023-07-09T08:12:37;5.80;;;4.53;;
60344;SDS011;46188;52.324;8.032;2023-07-09T08:15:02;5.45;;;4.72;;
60344;SDS011;46188;52.324;8.032;2023-07-09T08:17:28;7.72;;;4.20;;
60344;SDS011;46188;52.324;8.032;2023-07-09T08:19:53;6.03;;;4.57;;
60344;SDS011;46188;52.324;8.032;2023-07-09T08:22:19;7.60;;;4.15;;
60344;SDS011;46188;52.324;8.032;2023-07-09T08:24:46;6.95;;;4.95;;
60344;SDS011;46188;52.324;8.032;2023-07-09T08:27:12;6.10;;;4.32;;
60344;SDS011;46188;52.324;8.032;2023-07-09T08:29:37;6.32;;;4.53;;
60344;SDS011;46188;52.324;8.032;2023-07-09T08:32:02;6.82;;;4.40;;
60344;SDS011;46188;52.324;8.032;2023-07-09T08:34:28;6.53;;;4.80;;
60344;SDS011;46188;52.324;8.032;2023-07-09T08:36:54;6.93;;;4.35;;
60344;SDS011;46188;52.324;8.032;2023-07-09T08:39:19;8.50;;;5.70;;
60344;SDS011;46188;52.324;8.032;2023-07-09T08:42:03;6.28;;;4.90;;
60344;SDS011;46188;52.324;8.032;2023-07-09T08:44:43;5.65;;;4.40;;
60344;SDS011;46188;52.324;8.032;2023-07-09T08:47:27;5.90;;;4.32;;
60344;SDS011;46188;52.324;8.032;2023-07-09T08:50:00;7.45;;;4.72;;
60344;SDS011;46188;52.324;8.032;2023-07-09T08:52:43;9.27;;;4.90;;
60344;SDS011;46188;52.324;8.032;2023-07-09T08:55:20;7.15;;;4.85;;
60344;SDS011;46188;52.324;8.032;2023-07-09T08:57:48;7.03;;;4.03;;
60344;SDS011;46188;52.324;8.032;2023-07-09T09:05:21;9.77;;;4.03;;
60344;SDS011;46188;52.324;8.032;2023-07-09T09:08:31;5.25;;;4.65;;
60344;SDS011;46188;52.324;8.032;2023-07-09T09:10:57;6.85;;;4.57;;
60344;SDS011;46188;52.324;8.032;2023-07-09T09:13:46;7.63;;;5.20;;
60344;SDS011;46188;52.324;8.032;2023-07-09T09:16:21;4.78;;;4.03;;
60344;SDS011;46188;52.324;8.032;2023-07-09T09:18:49;7.85;;;4.38;;
60344;SDS011;46188;52.324;8.032;2023-07-09T09:21:23;6.47;;;3.83;;
60344;SDS011;46188;52.324;8.032;2023-07-09T09:23:52;4.68;;;3.60;;
60344;SDS011;46188;52.324;8.032;2023-07-09T09:26:23;7.93;;;4.43;;
60344;SDS011;46188;52.324;8.032;2023-07-09T09:28:52;6.15;;;4.65;;
60344;SDS011;46188;52.324;8.032;2023-07-09T09:31:17;7.85;;;4.10;;
60344;SDS011;46188;52.324;8.032;2023-07-09T09:33:44;6.55;;;4.10;;
60344;SDS011;46188;52.324;8.032;2023-07-09T09:36:19;6.68;;;4.13;;
60344;SDS011;46188;52.324;8.032;2023-07-09T09:38:46;5.18;;;3.45;;
60344;SDS011;46188;52.324;8.032;2023-07-09T09:41:15;6.95;;;4.30;;
60344;SDS011;46188;52.324;8.032;2023-07-09T09:43:44;5.60;;;4.88;;
60344;SDS011;46188;52.324;8.032;2023-07-09T09:46:24;5.30;;;3.67;;
60344;SDS011;46188;52.324;8.032;2023-07-09T09:48:55;6.53;;;4.28;;
60344;SDS011;46188;52.324;8.032;2023-07-09T09:51:24;4.72;;;3.58;;
60344;SDS011;46188;52.324;8.032;2023-07-09T09:53:55;5.53;;;3.10;;
60344;SDS011;46188;52.324;8.032;2023-07-09T09:58:54;5.78;;;3.60;;
60344;SDS011;46188;52.324;8.032;2023-07-09T10:01:22;6.53;;;4.28;;
60344;SDS011;46188;52.324;8.032;2023-07-09T10:03:54;6.10;;;3.70;;
60344;SDS011;46188;52.324;8.032;2023-07-09T10:06:22;5.43;;;4.00;;
60344;SDS011;46188;52.324;8.032;2023-07-09T10:14:38;6.60;;;4.20;;
60344;SDS011;46188;52.324;8.032;2023-07-09T10:20:27;5.97;;;3.97;;
60344;SDS011;46188;52.324;8.032;2023-07-09T10:23:13;6.57;;;4.10;;
60344;SDS011;46188;52.324;8.032;2023-07-09T10:25:48;6.65;;;4.38;;
60344;SDS011;46188;52.324;8.032;2023-07-09T10:28:24;6.32;;;4.43;;
60344;SDS011;46188;52.324;8.032;2023-07-09T10:31:15;6.28;;;4.38;;
60344;SDS011;46188;52.324;8.032;2023-07-09T10:36:59;7.93;;;4.30;;
60344;SDS011;46188;52.324;8.032;2023-07-09T10:39:42;6.70;;;4.32;;
60344;SDS011;46188;52.324;8.032;2023-07-09T10:42:21;5.45;;;4.00;;
60344;SDS011;46188;52.324;8.032;2023-07-09T10:45:01;6.82;;;4.40;;
60344;SDS011;46188;52.324;8.032;2023-07-09T10:47:38;7.15;;;4.10;;
60344;SDS011;46188;52.324;8.032;2023-07-09T10:50:20;7.38;;;4.32;;
60344;SDS011;46188;52.324;8.032;2023-07-09T10:52:54;6.38;;;3.80;;
60344;SDS011;46188;52.324;8.032;2023-07-09T10:55:43;6.28;;;3.85;;
60344;SDS011;46188;52.324;8.032;2023-07-09T11:00:55;5.70;;;3.28;;
60344;SDS011;46188;52.324;8.032;2023-07-09T11:03:26;7.15;;;3.35;;
60344;SDS011;46188;52.324;8.032;2023-07-09T11:06:00;22.80;;;4.07;;
60344;SDS011;46188;52.324;8.032;2023-07-09T11:08:34;6.55;;;3.45;;
60344;SDS011;46188;52.324;8.032;2023-07-09T11:11:04;13.50;;;5.75;;
60344;SDS011;46188;52.324;8.032;2023-07-09T11:13:45;5.00;;;3.47;;
60344;SDS011;46188;52.324;8.032;2023-07-09T11:16:16;6.97;;;3.53;;
60344;SDS011;46188;52.324;8.032;2023-07-09T11:18:55;5.95;;;3.45;;
60344;SDS011;46188;52.324;8.032;2023-07-09T11:21:23;4.35;;;3.17;;
60344;SDS011;46188;52.324;8.032;2023-07-09T11:23:49;4.73;;;3.07;;
60344;SDS011;46188;52.324;8.032;2023-07-09T11:31:47;5.00;;;3.00;;
60344;SDS011;46188;52.324;8.032;2023-07-09T11:42:01;6.80;;;4.03;;
60344;SDS011;46188;52.324;8.032;2023-07-09T11:44:29;9.68;;;3.78;;
60344;SDS011;46188;52.324;8.032;2023-07-09T11:49:52;4.55;;;2.90;;
60344;SDS011;46188;52.324;8.032;2023-07-09T11:52:28;6.32;;;3.35;;
60344;SDS011;46188;52.324;8.032;2023-07-09T11:55:01;4.15;;;2.97;;
60344;SDS011;46188;52.324;8.032;2023-07-09T11:57:47;6.05;;;3.53;;
60344;SDS011;46188;52.324;8.032;2023-07-09T12:00:17;5.10;;;3.53;;
60344;SDS011;46188;52.324;8.032;2023-07-09T12:02:42;6.30;;;3.17;;
60344;SDS011;46188;52.324;8.032;2023-07-09T12:05:08;4.15;;;3.05;;
60344;SDS011;46188;52.324;8.032;2023-07-09T12:07:34;7.90;;;3.60;;
60344;SDS011;46188;52.324;8.032;2023-07-09T12:10:00;8.85;;;3.72;;
60344;SDS011;46188;52.324;8.032;2023-07-09T12:12:29;4.53;;;3.15;;
60344;SDS011;46188;52.324;8.032;2023-07-09T12:14:54;5.80;;;3.03;;
60344;SDS011;46188;52.324;8.032;2023-07-09T12:17:22;5.63;;;3.45;;
60344;SDS011;46188;52.324;8.032;2023-07-09T12:19:51;4.65;;;3.20;;
60344;SDS011;46188;52.324;8.032;2023-07-09T12:22:18;5.13;;;3.08;;
60344;SDS011;46188;52.324;8.032;2023-07-09T12:24:45;5.43;;;3.60;;
60344;SDS011;46188;52.324;8.032;2023-07-09T12:27:20;5.60;;;3.30;;
60344;SDS011;46188;52.324;8.032;2023-07-09T12:29:49;5.28;;;2.80;;
60344;SDS011;46188;52.324;8.032;2023-07-09T12:32:16;3.78;;;3.13;;
60344;SDS011;46188;52.324;8.032;2023-07-09T12:34:46;6.05;;;3.22;;
60344;SDS011;46188;52.324;8.032;2023-07-09T12:37:14;5.82;;;3.47;;
60344;SDS011;46188;52.324;8.032;2023-07-09T12:39:40;4.22;;;3.05;;
60344;SDS011;46188;52.324;8.032;2023-07-09T12:42:09;10.55;;;3.80;;
60344;SDS011;46188;52.324;8.032;2023-07-09T12:44:40;6.13;;;3.95;;
60344;SDS011;46188;52.324;8.032;2023-07-09T12:47:07;7.13;;;2.90;;
60344;SDS011;46188;52.324;8.032;2023-07-09T12:49:40;5.65;;;2.63;;
60344;SDS011;46188;52.324;8.032;2023-07-09T12:52:09;5.05;;;3.30;;
60344;SDS011;46188;52.324;8.032;2023-07-09T12:54:39;4.13;;;3.30;;
60344;SDS011;46188;52.324;8.032;2023-07-09T12:57:10;5.57;;;3.43;;
60344;SDS011;46188;52.324;8.032;2023-07-09T12:59:42;5.93;;;3.00;;
60344;SDS011;46188;52.324;8.032;2023-07-09T13:02:17;6.60;;;3.47;;
60344;SDS011;46188;52.324;8.032;2023-07-09T13:04:48;4.82;;;2.60;;
60344;SDS011;46188;52.324;8.032;2023-07-09T13:09:49;3.92;;;2.70;;
60344;SDS011;46188;52.324;8.032;2023-07-09T13:12:16;7.25;;;3.65;;
60344;SDS011;46188;52.324;8.032;2023-07-09T13:14:41;7.60;;;3.08;;
60344;SDS011;46188;52.324;8.032;2023-07-09T13:17:07;3.90;;;2.80;;
60344;SDS011;46188;52.324;8.032;2023-07-09T13:19:35;5.75;;;3.45;;
60344;SDS011;46188;52.324;8.032;2023-07-09T13:22:00;5.35;;;2.85;;
60344;SDS011;46188;52.324;8.032;2023-07-09T13:24:29;4.90;;;3.20;;
60344;SDS011;46188;52.324;8.032;2023-07-09T13:26:57;4.45;;;3.17;;
60344;SDS011;46188;52.324;8.032;2023-07-09T13:29:24;6.60;;;3.05;;
60344;SDS011;46188;52.324;8.032;2023-07-09T13:31:50;7.93;;;3.42;;
60344;SDS011;46188;52.324;8.032;2023-07-09T13:34:18;4.70;;;3.35;;
60344;SDS011;46188;52.324;8.032;2023-07-09T13:36:58;8.52;;;3.55;;
60344;SDS011;46188;52.324;8.032;2023-07-09T13:39:23;5.22;;;3.30;;
60344;SDS011;46188;52.324;8.032;2023-07-09T13:41:49;6.55;;;3.90;;
60344;SDS011;46188;52.324;8.032;2023-07-09T13:44:19;5.90;;;3.45;;
60344;SDS011;46188;52.324;8.032;2023-07-09T13:46:47;5.07;;;3.80;;
60344;SDS011;46188;52.324;8.032;2023-07-09T13:49:16;5.63;;;3.13;;
60344;SDS011;46188;52.324;8.032;2023-07-09T13:51:43;5.93;;;3.15;;
60344;SDS011;46188;52.324;8.032;2023-07-09T13:54:15;9.90;;;3.92;;
60344;SDS011;46188;52.324;8.032;2023-07-09T13:56:48;5.93;;;3.28;;
60344;SDS011;46188;52.324;8.032;2023-07-09T13:59:21;4.55;;;3.70;;
60344;SDS011;46188;52.324;8.032;2023-07-09T14:01:48;5.55;;;3.50;;
60344;SDS011;46188;52.324;8.032;2023-07-09T14:04:16;5.05;;;3.40;;
60344;SDS011;46188;52.324;8.032;2023-07-09T14:06:43;5.43;;;3.65;;
60344;SDS011;46188;52.324;8.032;2023-07-09T14:09:11;8.55;;;3.40;;
60344;SDS011;46188;52.324;8.032;2023-07-09T14:11:38;13.35;;;4.05;;
60344;SDS011;46188;52.324;8.032;2023-07-09T14:14:29;8.63;;;4.20;;
60344;SDS011;46188;52.324;8.032;2023-07-09T14:16:55;7.65;;;3.67;;
60344;SDS011;46188;52.324;8.032;2023-07-09T14:19:21;6.13;;;3.80;;
60344;SDS011;46188;52.324;8.032;2023-07-09T14:21:47;7.22;;;3.92;;
60344;SDS011;46188;52.324;8.032;2023-07-09T14:26:44;4.95;;;3.95;;
60344;SDS011;46188;52.324;8.032;2023-07-09T14:29:11;6.40;;;3.88;;
60344;SDS011;46188;52.324;8.032;2023-07-09T14:31:37;7.68;;;3.85;;
60344;SDS011;46188;52.324;8.032;2023-07-09T14:34:16;6.73;;;3.87;;
60344;SDS011;46188;52.324;8.032;2023-07-09T14:36:46;6.20;;;3.78;;
60344;SDS011;46188;52.324;8.032;2023-07-09T14:39:11;4.93;;;3.43;;
60344;SDS011;46188;52.324;8.032;2023-07-09T14:41:36;6.70;;;3.47;;
60344;SDS011;46188;52.324;8.032;2023-07-09T14:44:02;5.25;;;3.65;;
60344;SDS011;46188;52.324;8.032;2023-07-09T14:46:27;5.47;;;3.83;;
60344;SDS011;46188;52.324;8.032;2023-07-09T14:48:53;6.67;;;3.80;;
60344;SDS011;46188;52.324;8.032;2023-07-09T14:51:18;5.30;;;4.20;;
60344;SDS011;46188;52.324;8.032;2023-07-09T14:53:44;9.50;;;4.10;;
60344;SDS011;46188;52.324;8.032;2023-07-09T14:56:11;5.40;;;3.90;;
60344;SDS011;46188;52.324;8.032;2023-07-09T14:58:38;9.55;;;4.10;;
60344;SDS011;46188;52.324;8.032;2023-07-09T15:01:03;7.70;;;4.17;;
60344;SDS011;46188;52.324;8.032;2023-07-09T15:03:28;5.10;;;3.90;;
60344;SDS011;46188;52.324;8.032;2023-07-09T15:05:54;6.93;;;4.00;;
60344;SDS011;46188;52.324;8.032;2023-07-09T15:08:20;7.47;;;4.05;;
60344;SDS011;46188;52.324;8.032;2023-07-09T15:10:47;8.65;;;4.38;;
60344;SDS011;46188;52.324;8.032;2023-07-09T15:13:18;7.97;;;4.22;;
60344;SDS011;46188;52.324;8.032;2023-07-09T15:15:45;6.65;;;4.28;;
60344;SDS011;46188;52.324;8.032;2023-07-09T15:18:12;9.13;;;5.22;;
60344;SDS011;46188;52.324;8.032;2023-07-09T15:20:39;8.85;;;4.53;;
60344;SDS011;46188;52.324;8.032;2023-07-09T15:23:08;9.27;;;4.53;;
60344;SDS011;46188;52.324;8.032;2023-07-09T15:25:35;8.65;;;4.63;;
60344;SDS011;46188;52.324;8.032;2023-07-09T15:28:00;5.87;;;3.50;;
60344;SDS011;46188;52.324;8.032;2023-07-09T15:30:27;6.53;;;4.10;;
60344;SDS011;46188;52.324;8.032;2023-07-09T15:32:55;6.32;;;4.10;;
60344;SDS011;46188;52.324;8.032;2023-07-09T15:35:22;10.10;;;4.45;;
60344;SDS011;46188;52.324;8.032;2023-07-09T15:37:48;9.75;;;4.03;;
60344;SDS011;46188;52.324;8.032;2023-07-09T15:40:17;8.98;;;4.72;;